Time;durP1;ratioP1;P1;durP2;ratioP2;P2;SDS_P1;SDS_P2;PMS_P1;PMS_P2;Temp;Humidity;BMP_temperature;BMP_pressure;BME280_temperature;BME280_humidity;BME280_pressure;Samples;Min_cycle;Max_cycle;Signal;HPM_P1;HPM_P2
2024/01/29 00:02:16;;;;;;;8.00;3.43;;;;;;;;;;4979465;28;20030;-78
2024/01/29 00:04:41;;;;;;;11.98;4.00;;;;;;;;;;4963926;28;20556;-79
2024/01/29 00:07:07;;;;;;;7.95;3.20;;;;;;;;;;4978405;28;20034;-79
2024/01/29 00:09:32;;;;;;;8.50;3.40;;;;;;;;;;4984136;28;20068;-79
2024/01/29 00:11:58;;;;;;;8.75;3.35;;;;;;;;;;4975920;28;20410;-78
2024/01/29 00:14:24;;;;;;;7.18;3.17;;;;;;;;;;4977815;28;20042;-79
2024/01/29 00:16:49;;;;;;;8.50;3.63;;;;;;;;;;4961089;28;20042;-78
2024/01/29 00:19:15;;;;;;;6.32;3.08;;;;;;;;;;4943045;28;20459;-78
2024/01/29 00:21:40;;;;;;;6.90;3.17;;;;;;;;;;4959164;28;20390;-80
2024/01/29 00:24:06;;;;;;;10.27;3.55;;;;;;;;;;4975634;28;20027;-78
2024/01/29 00:26:31;;;;;;;8.70;3.50;;;;;;;;;;4966490;28;20465;-80
2024/01/29 00:28:57;;;;;;;6.28;3.10;;;;;;;;;;4996729;28;20509;-80
2024/01/29 00:31:23;;;;;;;10.13;3.65;;;;;;;;;;4996739;28;20041;-79
2024/01/29 00:33:51;;;;;;;7.20;2.80;;;;;;;;;;4997117;28;20022;-78
2024/01/29 00:36:16;;;;;;;6.93;3.20;;;;;;;;;;4964556;28;20133;-78
2024/01/29 00:38:42;;;;;;;5.70;2.80;;;;;;;;;;4981295;28;20116;-78
2024/01/29 00:41:08;;;;;;;11.35;3.03;;;;;;;;;;4995021;28;20030;-78
2024/01/29 00:43:34;;;;;;;13.35;3.13;;;;;;;;;;4960772;28;20039;-78
2024/01/29 00:45:59;;;;;;;8.63;3.95;;;;;;;;;;4977455;28;20031;-79
2024/01/29 00:48:25;;;;;;;10.35;3.55;;;;;;;;;;4992731;28;20398;-79
2024/01/29 00:50:51;;;;;;;6.75;2.95;;;;;;;;;;4992495;28;20053;-78
2024/01/29 00:53:17;;;;;;;8.57;3.15;;;;;;;;;;4995260;28;20030;-78
2024/01/29 00:55:43;;;;;;;6.53;2.85;;;;;;;;;;4979731;28;20034;-80
2024/01/29 00:58:09;;;;;;;9.10;3.30;;;;;;;;;;4999467;28;20041;-77
2024/01/29 01:00:35;;;;;;;11.82;4.18;;;;;;;;;;4999648;28;20394;-78
2024/01/29 01:03:01;;;;;;;7.97;2.85;;;;;;;;;;4998507;28;20030;-78
2024/01/29 01:05:26;;;;;;;7.70;3.17;;;;;;;;;;4998012;28;20034;-79
2024/01/29 01:07:52;;;;;;;7.43;2.67;;;;;;;;;;4989815;28;20433;-77
2024/01/29 01:10:18;;;;;;;7.25;3.10;;;;;;;;;;4946519;28;20034;-79
2024/01/29 01:12:43;;;;;;;8.23;2.88;;;;;;;;;;4980721;28;20031;-78
2024/01/29 01:15:09;;;;;;;6.88;2.78;;;;;;;;;;4979015;28;20031;-78
2024/01/29 01:17:34;;;;;;;6.95;2.45;;;;;;;;;;4978555;28;20019;-79
2024/01/29 01:20:00;;;;;;;6.22;2.83;;;;;;;;;;4964602;28;20034;-79
2024/01/29 01:22:26;;;;;;;8.32;2.83;;;;;;;;;;4964224;28;20031;-80
2024/01/29 01:24:51;;;;;;;8.13;3.08;;;;;;;;;;4977590;28;20030;-80
2024/01/29 01:27:17;;;;;;;9.45;2.50;;;;;;;;;;4965909;28;20045;-79
2024/01/29 01:29:44;;;;;;;8.00;2.78;;;;;;;;;;4997530;28;20034;-78
2024/01/29 01:32:09;;;;;;;9.30;3.40;;;;;;;;;;4965152;28;20041;-78
2024/01/29 01:34:35;;;;;;;7.20;2.63;;;;;;;;;;4998459;28;20023;-79
2024/01/29 01:37:01;;;;;;;6.45;2.55;;;;;;;;;;4965514;28;20062;-78
2024/01/29 01:39:26;;;;;;;8.70;2.85;;;;;;;;;;4982491;28;20030;-79
2024/01/29 01:41:52;;;;;;;5.45;2.50;;;;;;;;;;4980300;28;20126;-79
2024/01/29 01:44:17;;;;;;;7.90;2.33;;;;;;;;;;4969792;28;20046;-78
2024/01/29 01:46:43;;;;;;;6.70;2.70;;;;;;;;;;4978066;28;20038;-78
2024/01/29 01:49:09;;;;;;;6.55;2.60;;;;;;;;;;4978234;28;20077;-79
2024/01/29 01:51:34;;;;;;;9.20;3.30;;;;;;;;;;4973885;28;20038;-80
2024/01/29 01:54:02;;;;;;;8.25;3.00;;;;;;;;;;4995934;28;20030;-79
2024/01/29 01:56:28;;;;;;;6.43;2.38;;;;;;;;;;4982620;28;20035;-78
2024/01/29 01:58:54;;;;;;;6.10;2.45;;;;;;;;;;4984443;28;20060;-79
2024/01/29 02:01:20;;;;;;;12.18;3.08;;;;;;;;;;4996519;28;20188;-78
2024/01/29 02:03:46;;;;;;;9.20;2.72;;;;;;;;;;4997971;28;20031;-79
2024/01/29 02:06:11;;;;;;;6.00;2.60;;;;;;;;;;4981638;28;20475;-78
2024/01/29 02:08:37;;;;;;;9.35;2.55;;;;;;;;;;4996374;28;20098;-78
2024/01/29 02:11:04;;;;;;;7.85;2.58;;;;;;;;;;4965178;28;20033;-77
2024/01/29 02:13:30;;;;;;;6.90;2.42;;;;;;;;;;4978337;28;20035;-78
2024/01/29 02:15:56;;;;;;;8.98;3.03;;;;;;;;;;4981450;28;20122;-80
2024/01/29 02:18:22;;;;;;;5.32;2.33;;;;;;;;;;5000465;28;20034;-78
2024/01/29 02:20:47;;;;;;;7.93;2.70;;;;;;;;;;4999180;28;20569;-78
2024/01/29 02:23:13;;;;;;;6.55;2.33;;;;;;;;;;4999258;28;20030;-78
2024/01/29 02:25:38;;;;;;;8.68;2.70;;;;;;;;;;4998752;28;20383;-79
2024/01/29 02:28:04;;;;;;;6.85;2.35;;;;;;;;;;4981782;28;20444;-79
2024/01/29 02:30:30;;;;;;;5.88;2.40;;;;;;;;;;4997080;28;20512;-79
2024/01/29 02:32:55;;;;;;;7.05;2.63;;;;;;;;;;4996558;28;20085;-78
2024/01/29 02:35:22;;;;;;;6.60;2.45;;;;;;;;;;4981399;28;20478;-77
2024/01/29 02:37:48;;;;;;;10.57;2.90;;;;;;;;;;4998125;28;20026;-79
2024/01/29 02:40:13;;;;;;;6.13;2.47;;;;;;;;;;4997522;28;20022;-78
2024/01/29 02:42:40;;;;;;;6.20;2.20;;;;;;;;;;4980173;28;20038;-78
2024/01/29 02:45:05;;;;;;;6.70;2.33;;;;;;;;;;4999090;28;20022;-78
2024/01/29 02:47:31;;;;;;;5.40;2.60;;;;;;;;;;4995542;28;20148;-78
2024/01/29 02:49:56;;;;;;;9.80;3.08;;;;;;;;;;4994425;28;20026;-77
2024/01/29 02:52:22;;;;;;;7.03;2.33;;;;;;;;;;4997966;28;20438;-77
2024/01/29 02:54:47;;;;;;;6.03;2.30;;;;;;;;;;4980566;28;20026;-78
2024/01/29 02:57:13;;;;;;;7.53;2.42;;;;;;;;;;4979719;28;20034;-79
2024/01/29 02:59:38;;;;;;;6.45;2.97;;;;;;;;;;4997255;28;20041;-78
2024/01/29 03:02:04;;;;;;;5.78;2.53;;;;;;;;;;4981975;28;20398;-78
2024/01/29 03:04:29;;;;;;;7.07;2.42;;;;;;;;;;4998176;28;20037;-78
2024/01/29 03:06:55;;;;;;;8.05;2.67;;;;;;;;;;4965129;28;20065;-78
2024/01/29 03:09:21;;;;;;;8.38;2.88;;;;;;;;;;4982106;28;20034;-78
2024/01/29 03:11:47;;;;;;;5.50;2.47;;;;;;;;;;4966680;28;20035;-78
2024/01/29 03:14:13;;;;;;;7.20;2.38;;;;;;;;;;4966209;28;20034;-78
2024/01/29 03:16:39;;;;;;;6.55;2.70;;;;;;;;;;4965740;28;20031;-77
2024/01/29 03:19:04;;;;;;;6.75;2.47;;;;;;;;;;4995292;28;20030;-78
2024/01/29 03:21:30;;;;;;;8.32;2.22;;;;;;;;;;4980467;28;20038;-78
2024/01/29 03:23:56;;;;;;;6.38;2.72;;;;;;;;;;4963044;28;20075;-78
2024/01/29 03:26:21;;;;;;;7.88;2.20;;;;;;;;;;4980087;28;20030;-77
2024/01/29 03:28:47;;;;;;;6.35;2.83;;;;;;;;;;4996043;28;20030;-78
2024/01/29 03:31:13;;;;;;;6.70;2.55;;;;;;;;;;4979415;28;20061;-77
2024/01/29 03:33:38;;;;;;;6.43;2.22;;;;;;;;;;4994642;28;20033;-77
2024/01/29 03:36:05;;;;;;;9.13;2.55;;;;;;;;;;4997318;28;20030;-76
2024/01/29 03:38:31;;;;;;;6.03;2.55;;;;;;;;;;4980906;28;20038;-77
2024/01/29 03:40:57;;;;;;;6.80;2.30;;;;;;;;;;4959887;28;20146;-79
2024/01/29 03:43:22;;;;;;;8.05;2.63;;;;;;;;;;4959902;28;20039;-77
2024/01/29 03:45:48;;;;;;;6.40;2.28;;;;;;;;;;4977852;28;20038;-78
2024/01/29 03:48:14;;;;;;;5.20;2.10;;;;;;;;;;4976986;28;20027;-78
2024/01/29 03:50:39;;;;;;;6.20;2.22;;;;;;;;;;4961681;28;20038;-79
2024/01/29 03:53:05;;;;;;;7.38;2.55;;;;;;;;;;4980768;28;20054;-77
2024/01/29 03:55:30;;;;;;;7.47;2.35;;;;;;;;;;4964832;28;20310;-80
2024/01/29 03:57:56;;;;;;;6.78;2.30;;;;;;;;;;4981144;28;20041;-79
2024/01/29 04:00:23;;;;;;;6.97;2.60;;;;;;;;;;5006255;28;20032;-80
2024/01/29 04:02:49;;;;;;;7.13;2.80;;;;;;;;;;5005460;28;20036;-78
2024/01/29 04:05:16;;;;;;;8.68;2.63;;;;;;;;;;4990607;28;20667;-79
2024/01/29 04:07:41;;;;;;;6.20;2.08;;;;;;;;;;5006910;28;20036;-80
2024/01/29 04:10:07;;;;;;;8.65;2.88;;;;;;;;;;4991701;28;20046;-79
2024/01/29 04:12:33;;;;;;;7.65;2.40;;;;;;;;;;4992372;28;20039;-78
2024/01/29 04:14:59;;;;;;;7.40;2.42;;;;;;;;;;5004949;28;20027;-79
2024/01/29 04:17:25;;;;;;;7.72;2.50;;;;;;;;;;4990401;28;20035;-78
2024/01/29 04:19:50;;;;;;;8.20;2.35;;;;;;;;;;4988401;28;20070;-79
2024/01/29 04:22:16;;;;;;;6.82;2.45;;;;;;;;;;4987425;28;20042;-79
2024/01/29 04:24:41;;;;;;;7.28;2.30;;;;;;;;;;4966203;28;20037;-78
2024/01/29 04:27:07;;;;;;;8.82;2.78;;;;;;;;;;4963380;28;20039;-77
2024/01/29 04:29:33;;;;;;;7.93;2.55;;;;;;;;;;4979122;28;20058;-79
2024/01/29 04:31:59;;;;;;;6.05;2.25;;;;;;;;;;4969886;28;20037;-78
2024/01/29 04:34:25;;;;;;;6.65;2.75;;;;;;;;;;4989101;28;20504;-78
2024/01/29 04:36:51;;;;;;;16.15;3.97;;;;;;;;;;5002342;28;20034;-80
2024/01/29 04:39:16;;;;;;;7.85;2.90;;;;;;;;;;4985945;28;20042;-78
2024/01/29 04:41:42;;;;;;;6.25;2.80;;;;;;;;;;4969046;28;20048;-79
2024/01/29 04:44:07;;;;;;;10.65;3.55;;;;;;;;;;5000808;28;20039;-79
2024/01/29 04:46:33;;;;;;;8.60;3.08;;;;;;;;;;4968414;28;20061;-79
2024/01/29 04:48:58;;;;;;;6.88;2.83;;;;;;;;;;4985265;28;20035;-79
2024/01/29 04:51:25;;;;;;;6.20;2.60;;;;;;;;;;5000525;28;20026;-80
2024/01/29 04:53:50;;;;;;;5.32;2.17;;;;;;;;;;4985384;28;20164;-80
2024/01/29 04:56:16;;;;;;;9.02;3.20;;;;;;;;;;4984741;28;20097;-79
2024/01/29 04:58:42;;;;;;;5.70;2.28;;;;;;;;;;5000266;28;20113;-78
2024/01/29 05:01:08;;;;;;;7.35;2.38;;;;;;;;;;5000410;28;20031;-79
2024/01/29 05:03:33;;;;;;;6.82;2.10;;;;;;;;;;4969868;28;20034;-80
2024/01/29 05:05:59;;;;;;;8.75;2.35;;;;;;;;;;5003509;28;20030;-78
2024/01/29 05:08:26;;;;;;;8.95;2.63;;;;;;;;;;4970498;28;20129;-80
2024/01/29 05:10:51;;;;;;;6.85;2.15;;;;;;;;;;4988395;28;20060;-79
2024/01/29 05:13:17;;;;;;;16.83;5.38;;;;;;;;;;4987515;28;20038;-80
2024/01/29 05:15:43;;;;;;;7.15;2.20;;;;;;;;;;4965817;28;20039;-80
2024/01/29 05:18:09;;;;;;;10.65;2.30;;;;;;;;;;4980810;28;20046;-79
2024/01/29 05:20:34;;;;;;;7.22;1.92;;;;;;;;;;4945194;28;20035;-79
2024/01/29 05:23:00;;;;;;;5.15;2.55;;;;;;;;;;4977508;28;20076;-77
2024/01/29 05:25:26;;;;;;;8.05;2.33;;;;;;;;;;4977349;28;20039;-78
2024/01/29 05:27:51;;;;;;;5.13;2.00;;;;;;;;;;4979364;28;20033;-79
2024/01/29 05:30:17;;;;;;;5.40;2.42;;;;;;;;;;4978970;28;20089;-78
2024/01/29 05:32:42;;;;;;;6.18;2.45;;;;;;;;;;4987148;28;20103;-78
2024/01/29 05:35:09;;;;;;;5.82;2.20;;;;;;;;;;4980715;28;20019;-79
2024/01/29 05:37:35;;;;;;;4.95;2.08;;;;;;;;;;4979105;28;20042;-80
2024/01/29 05:40:00;;;;;;;8.40;2.33;;;;;;;;;;4996822;28;20043;-81
2024/01/29 05:42:26;;;;;;;6.85;2.42;;;;;;;;;;4996450;28;20039;-79
2024/01/29 05:44:52;;;;;;;7.68;2.63;;;;;;;;;;4982062;28;20035;-79
2024/01/29 05:47:18;;;;;;;9.02;2.58;;;;;;;;;;4983975;28;20050;-79
2024/01/29 05:49:43;;;;;;;7.28;2.53;;;;;;;;;;4999638;28;20085;-78
2024/01/29 05:52:09;;;;;;;9.70;2.95;;;;;;;;;;4965625;28;20066;-78
2024/01/29 05:54:35;;;;;;;11.35;3.83;;;;;;;;;;4998637;28;20027;-78
2024/01/29 05:57:00;;;;;;;11.57;3.35;;;;;;;;;;4981014;28;20038;-77
2024/01/29 05:59:26;;;;;;;7.57;3.00;;;;;;;;;;4981438;28;20062;-80
2024/01/29 06:01:52;;;;;;;8.07;2.70;;;;;;;;;;4981175;28;20128;-77
2024/01/29 06:04:17;;;;;;;9.50;2.35;;;;;;;;;;4997210;28;20042;-78
2024/01/29 06:06:43;;;;;;;7.00;2.08;;;;;;;;;;4980947;28;20460;-78
2024/01/29 06:09:09;;;;;;;8.13;2.40;;;;;;;;;;4981632;28;20034;-78
2024/01/29 06:11:35;;;;;;;6.32;2.25;;;;;;;;;;4982263;28;20129;-78
2024/01/29 06:14:04;;;;;;;8.35;2.00;;;;;;;;;;4981105;28;20038;-76
2024/01/29 06:16:30;;;;;;;6.40;2.35;;;;;;;;;;4996654;28;20402;-78
2024/01/29 06:18:55;;;;;;;6.90;2.03;;;;;;;;;;4997928;28;20038;-79
2024/01/29 06:21:24;;;;;;;7.70;2.33;;;;;;;;;;4997525;28;20042;-78
2024/01/29 06:23:49;;;;;;;7.85;2.05;;;;;;;;;;4965237;28;20100;-80
2024/01/29 06:26:16;;;;;;;7.20;2.83;;;;;;;;;;4980675;28;20033;-78
2024/01/29 06:28:42;;;;;;;8.18;2.22;;;;;;;;;;4997996;28;20037;-79
2024/01/29 06:31:08;;;;;;;7.65;2.60;;;;;;;;;;4998058;28;20394;-78
2024/01/29 06:33:38;;;;;;;4.78;2.30;;;;;;;;;;4999617;28;20046;-79
2024/01/29 06:36:04;;;;;;;6.18;1.80;;;;;;;;;;4999682;28;20072;-78
2024/01/29 06:38:30;;;;;;;6.50;2.35;;;;;;;;;;4983551;28;20038;-81
2024/01/29 06:40:57;;;;;;;6.13;2.42;;;;;;;;;;4984855;28;20036;-78
2024/01/29 06:43:22;;;;;;;8.82;2.47;;;;;;;;;;4969578;28;20041;-79
2024/01/29 06:45:48;;;;;;;5.50;2.28;;;;;;;;;;4964130;28;20042;-80
2024/01/29 06:48:14;;;;;;;6.13;2.20;;;;;;;;;;4981413;28;20034;-78
2024/01/29 06:50:40;;;;;;;8.77;1.98;;;;;;;;;;4981348;28;20034;-81
2024/01/29 06:53:06;;;;;;;4.60;1.77;;;;;;;;;;4966109;28;20034;-78
2024/01/29 06:55:31;;;;;;;5.55;2.15;;;;;;;;;;4980069;28;20035;-78
2024/01/29 06:57:57;;;;;;;4.97;2.03;;;;;;;;;;4979457;28;20022;-78
2024/01/29 07:00:23;;;;;;;4.40;1.90;;;;;;;;;;4986344;28;20031;-79
2024/01/29 07:02:48;;;;;;;5.13;2.20;;;;;;;;;;4960263;28;20069;-78
2024/01/29 07:05:15;;;;;;;6.00;2.20;;;;;;;;;;4960599;28;20049;-77
2024/01/29 07:07:41;;;;;;;4.45;1.80;;;;;;;;;;4961312;28;20043;-79
2024/01/29 07:10:07;;;;;;;3.58;1.63;;;;;;;;;;4964134;28;20122;-79
2024/01/29 07:12:33;;;;;;;6.15;2.30;;;;;;;;;;4983201;28;20022;-79
2024/01/29 07:14:58;;;;;;;6.70;1.98;;;;;;;;;;4985922;28;20097;-79
2024/01/29 07:17:24;;;;;;;5.75;1.85;;;;;;;;;;4992141;28;20052;-78
2024/01/29 07:50:45;;;;;;;8.27;2.13;;;;;;;;;;4996984;28;20063;-83
2024/01/29 07:53:16;;;;;;;5.68;2.40;;;;;;;;;;4965618;28;20030;-83
2024/01/29 07:55:45;;;;;;;10.10;2.30;;;;;;;;;;4997885;28;20515;-83
2024/01/29 07:58:11;;;;;;;9.27;2.30;;;;;;;;;;4986542;28;20045;-81
2024/01/29 08:00:37;;;;;;;6.50;1.88;;;;;;;;;;4988034;28;20042;-84
2024/01/29 08:03:06;;;;;;;7.70;2.10;;;;;;;;;;4993942;28;20580;-83
2024/01/29 08:05:34;;;;;;;;;;;;;;;;;;4970506;28;20038;-83
2024/01/29 08:08:00;;;;;;;6.35;2.65;;;;;;;;;;5003338;28;19913;-83
2024/01/29 08:10:36;;;;;;;9.43;3.13;;;;;;;;;;5001358;28;20026;-83
2024/01/29 08:13:07;;;;;;;8.38;3.20;;;;;;;;;;4987714;28;20042;-83
2024/01/29 08:15:35;;;;;;;12.73;4.20;;;;;;;;;;4976732;28;20041;-83
2024/01/29 08:18:03;;;;;;;6.13;2.90;;;;;;;;;;4997459;28;20026;-83
2024/01/29 08:20:32;;;;;;;12.18;2.75;;;;;;;;;;5017334;28;20053;-83
2024/01/29 08:23:04;;;;;;;11.95;2.67;;;;;;;;;;4991819;28;20042;-83
2024/01/29 08:25:30;;;;;;;8.63;3.67;;;;;;;;;;5004856;28;20056;-83
2024/01/29 08:27:57;;;;;;;15.48;6.35;;;;;;;;;;5002043;28;20030;-84
2024/01/29 08:30:24;;;;;;;13.10;2.65;;;;;;;;;;4998004;28;20027;-84
2024/01/29 08:32:50;;;;;;;7.68;2.60;;;;;;;;;;4994306;28;20088;-83
2024/01/29 08:35:18;;;;;;;4.25;1.60;;;;;;;;;;4990688;28;20030;-84
2024/01/29 08:37:44;;;;;;;9.15;2.10;;;;;;;;;;4990133;28;20464;-83
2024/01/29 08:40:10;;;;;;;4.55;1.40;;;;;;;;;;5007996;28;20068;-84
2024/01/29 08:42:36;;;;;;;6.13;2.10;;;;;;;;;;4991088;28;20087;-83
2024/01/29 08:45:03;;;;;;;9.18;1.90;;;;;;;;;;4984082;28;20022;-84
2024/01/29 08:47:30;;;;;;;9.10;2.60;;;;;;;;;;4992018;28;20034;-84
2024/01/29 08:49:56;;;;;;;5.25;1.98;;;;;;;;;;5006563;28;20041;-83
2024/01/29 08:52:22;;;;;;;6.55;1.70;;;;;;;;;;4998434;28;20072;-84
2024/01/29 08:54:48;;;;;;;7.63;2.30;;;;;;;;;;4999735;28;20034;-83
2024/01/29 08:57:14;;;;;;;5.53;2.00;;;;;;;;;;4987581;28;20090;-84
2024/01/29 08:59:41;;;;;;;4.13;1.88;;;;;;;;;;4975965;28;20061;-83
2024/01/29 09:02:08;;;;;;;3.83;1.70;;;;;;;;;;4993141;28;20041;-83
2024/01/29 09:04:41;;;;;;;6.88;2.22;;;;;;;;;;4990646;28;20117;-83
2024/01/29 09:07:07;;;;;;;6.13;2.35;;;;;;;;;;4999328;28;20030;-83
2024/01/29 09:09:33;;;;;;;6.05;1.67;;;;;;;;;;4984570;28;20061;-83
2024/01/29 09:11:59;;;;;;;4.97;1.80;;;;;;;;;;4993243;28;20029;-83
2024/01/29 09:14:27;;;;;;;8.75;2.53;;;;;;;;;;5005200;28;20048;-83
2024/01/29 09:16:54;;;;;;;17.37;2.87;;;;;;;;;;4999407;28;20052;-82
2024/01/29 09:19:26;;;;;;;9.85;1.90;;;;;;;;;;5004702;28;20031;-83
2024/01/29 09:21:57;;;;;;;6.60;2.30;;;;;;;;;;4995151;28;20101;-82
2024/01/29 09:24:32;;;;;;;4.95;2.00;;;;;;;;;;4981529;28;20408;-83
2024/01/29 09:27:04;;;;;;;7.15;2.33;;;;;;;;;;4995175;28;20026;-82
2024/01/29 09:29:38;;;;;;;4.22;1.98;;;;;;;;;;5002203;28;20030;-83
2024/01/29 09:32:05;;;;;;;7.85;1.92;;;;;;;;;;4992828;28;20030;-82
2024/01/29 09:34:37;;;;;;;6.53;1.85;;;;;;;;;;4990391;28;20029;-83
2024/01/29 09:37:03;;;;;;;10.25;2.10;;;;;;;;;;4998345;28;20085;-83
2024/01/29 09:39:34;;;;;;;4.00;1.80;;;;;;;;;;5012651;28;20034;-83
2024/01/29 09:42:04;;;;;;;4.20;1.55;;;;;;;;;;4985044;28;20034;-83
2024/01/29 09:44:38;;;;;;;5.88;2.17;;;;;;;;;;4990399;28;20108;-82
2024/01/29 09:47:05;;;;;;;7.07;1.90;;;;;;;;;;4994288;28;20084;-84
2024/01/29 09:49:31;;;;;;;8.02;1.77;;;;;;;;;;4982960;28;20041;-83
2024/01/29 09:52:04;;;;;;;9.25;2.05;;;;;;;;;;5004326;28;21251;-83
2024/01/29 09:54:31;;;;;;;6.53;1.80;;;;;;;;;;4981451;28;20029;-83
2024/01/29 09:56:56;;;;;;;7.53;1.83;;;;;;;;;;4992144;28;20030;-82
2024/01/29 09:59:23;;;;;;;7.47;2.17;;;;;;;;;;5014942;28;20040;-83
2024/01/29 10:01:49;;;;;;;6.28;1.75;;;;;;;;;;5002953;28;20037;-84
2024/01/29 10:04:15;;;;;;;6.78;2.10;;;;;;;;;;4981457;28;20045;-84
2024/01/29 10:06:40;;;;;;;4.65;1.95;;;;;;;;;;5014677;28;20144;-84
2024/01/29 10:09:06;;;;;;;9.82;1.90;;;;;;;;;;5001723;28;20061;-83
2024/01/29 10:11:32;;;;;;;9.15;2.28;;;;;;;;;;5010433;28;20029;-83
2024/01/29 10:13:58;;;;;;;5.57;1.77;;;;;;;;;;4977988;28;20041;-83
2024/01/29 10:16:25;;;;;;;6.65;1.73;;;;;;;;;;4985470;28;20464;-83
2024/01/29 10:18:58;;;;;;;9.85;2.00;;;;;;;;;;5006962;28;20030;-83
2024/01/29 10:21:25;;;;;;;4.45;1.70;;;;;;;;;;4983801;28;20089;-83
2024/01/29 10:23:56;;;;;;;8.88;1.85;;;;;;;;;;4975037;28;20076;-83
2024/01/29 10:26:28;;;;;;;7.63;2.00;;;;;;;;;;4996323;28;20590;-83
2024/01/29 10:29:03;;;;;;;6.82;2.22;;;;;;;;;;4993930;28;20041;-83
2024/01/29 10:31:30;;;;;;;6.63;1.75;;;;;;;;;;4982618;28;20543;-82
2024/01/29 10:33:56;;;;;;;9.65;1.70;;;;;;;;;;4980672;28;20508;-82
2024/01/29 10:36:22;;;;;;;6.03;1.90;;;;;;;;;;5014330;28;20034;-82
2024/01/29 10:38:48;;;;;;;7.43;1.42;;;;;;;;;;4976268;28;20120;-82
2024/01/29 10:41:17;;;;;;;7.15;2.03;;;;;;;;;;4984087;28;20042;-83
2024/01/29 10:43:52;;;;;;;5.10;1.80;;;;;;;;;;4979178;28;20105;-83
2024/01/29 10:46:25;;;;;;;4.93;1.60;;;;;;;;;;4982551;28;20038;-83
2024/01/29 10:48:58;;;;;;;3.38;1.52;;;;;;;;;;4981219;28;20093;-83
2024/01/29 10:51:24;;;;;;;5.68;1.67;;;;;;;;;;4985051;28;20026;-83
2024/01/29 10:53:51;;;;;;;4.40;1.58;;;;;;;;;;4984885;28;20098;-83
2024/01/29 10:56:19;;;;;;;;;;;;;;;;;;5001014;28;20429;-83
2024/01/29 10:59:03;;;;;;;5.18;1.63;;;;;;;;;;4973779;28;19909;-83
2024/01/29 11:01:31;;;;;;;4.25;1.63;;;;;;;;;;5005533;28;20046;-83
2024/01/29 11:04:00;;;;;;;6.07;1.95;;;;;;;;;;5010374;28;20065;-82
2024/01/29 11:06:38;;;;;;;4.55;1.58;;;;;;;;;;5031332;28;20045;-83
2024/01/29 11:09:08;;;;;;;6.85;1.90;;;;;;;;;;5017777;28;20033;-83
2024/01/29 11:18:47;;;;;;;6.53;2.25;;;;;;;;;;4989815;28;20093;-82
2024/01/29 11:21:23;;;;;;;5.18;1.75;;;;;;;;;;4966431;28;20027;-83
2024/01/29 11:24:20;;;;;;;3.03;1.45;;;;;;;;;;4971604;28;20098;-81
2024/01/29 11:26:49;;;;;;;4.63;1.80;;;;;;;;;;4961198;28;20553;-82
2024/01/29 11:29:19;;;;;;;5.95;1.95;;;;;;;;;;4964641;28;20090;-82
2024/01/29 11:31:53;;;;;;;5.30;2.00;;;;;;;;;;4964495;28;20035;-83
2024/01/29 11:34:26;;;;;;;6.65;2.10;;;;;;;;;;4973089;23;20102;-83
2024/01/29 11:36:53;;;;;;;4.80;2.00;;;;;;;;;;4975111;28;20088;-83
2024/01/29 11:39:22;;;;;;;6.18;2.15;;;;;;;;;;4966515;28;20042;-82
2024/01/29 11:41:49;;;;;;;5.38;1.75;;;;;;;;;;4925920;29;20139;-82
2024/01/29 11:44:17;;;;;;;5.53;2.10;;;;;;;;;;4942745;29;20131;-81
2024/01/29 11:46:43;;;;;;;5.07;2.35;;;;;;;;;;4922055;29;20035;-83
2024/01/29 11:49:08;;;;;;;10.05;2.30;;;;;;;;;;4938432;28;20035;-83
2024/01/29 11:51:37;;;;;;;5.80;2.33;;;;;;;;;;4905638;29;20039;-83
2024/01/29 11:54:03;;;;;;;7.13;1.90;;;;;;;;;;4938290;29;20023;-83
2024/01/29 11:56:31;;;;;;;4.55;1.98;;;;;;;;;;4921219;29;20114;-83
2024/01/29 11:58:57;;;;;;;;;;;;;;;;;;4938792;29;20039;-83
2024/01/29 12:01:23;;;;;;;7.65;2.72;;;;;;;;;;4906279;29;19910;-83
2024/01/29 12:03:50;;;;;;;7.70;1.80;;;;;;;;;;4936858;29;20127;-82
2024/01/29 12:06:17;;;;;;;5.90;2.15;;;;;;;;;;4893842;29;20086;-83
2024/01/29 12:08:49;;;;;;;8.43;2.10;;;;;;;;;;4922182;29;20036;-83
2024/01/29 12:11:17;;;;;;;6.78;2.35;;;;;;;;;;4922116;29;20063;-81
2024/01/29 12:13:44;;;;;;;6.15;1.90;;;;;;;;;;4920508;29;20090;-82
2024/01/29 12:16:10;;;;;;;8.13;2.35;;;;;;;;;;4919863;29;20039;-82
2024/01/29 12:18:38;;;;;;;8.70;2.55;;;;;;;;;;4920703;29;20111;-83
2024/01/29 12:21:07;;;;;;;4.97;2.08;;;;;;;;;;4891032;29;20036;-83
2024/01/29 12:23:33;;;;;;;9.50;2.13;;;;;;;;;;4923826;29;20028;-82
2024/01/29 12:25:59;;;;;;;7.88;2.25;;;;;;;;;;4923933;29;20056;-82
2024/01/29 12:28:27;;;;;;;5.55;1.92;;;;;;;;;;4923864;29;20040;-82
2024/01/29 12:31:07;;;;;;;14.57;3.08;;;;;;;;;;4909261;29;20055;-83
2024/01/29 12:33:37;;;;;;;5.70;2.40;;;;;;;;;;4893371;29;20068;-83
2024/01/29 12:36:13;;;;;;;6.05;2.20;;;;;;;;;;4889639;29;20047;-83
2024/01/29 12:38:39;;;;;;;313.45;232.57;;;;;;;;;;4931363;29;20484;-80
2024/01/29 12:41:05;;;;;;;156.32;94.40;;;;;;;;;;4936424;29;20497;-80
2024/01/29 12:43:32;;;;;;;8.45;3.92;;;;;;;;;;4936204;29;20121;-83
2024/01/29 12:46:10;;;;;;;6.95;2.15;;;;;;;;;;4927583;29;20091;-84
2024/01/29 12:48:36;;;;;;;9.57;2.65;;;;;;;;;;4927659;29;20466;-83
2024/01/29 12:51:02;;;;;;;7.10;2.10;;;;;;;;;;4923137;29;20039;-83
2024/01/29 12:53:27;;;;;;;6.07;1.80;;;;;;;;;;4926992;29;20039;-84
2024/01/29 12:55:53;;;;;;;5.63;2.05;;;;;;;;;;4943709;29;20045;-83
2024/01/29 12:58:20;;;;;;;9.82;2.60;;;;;;;;;;4926930;29;20040;-83
2024/01/29 13:00:46;;;;;;;6.38;3.03;;;;;;;;;;4941624;29;20039;-83
2024/01/29 13:03:12;;;;;;;8.68;3.00;;;;;;;;;;4908425;29;20408;-82
2024/01/29 13:05:37;;;;;;;8.73;3.72;;;;;;;;;;4910036;29;20043;-83
2024/01/29 13:08:03;;;;;;;8.18;3.30;;;;;;;;;;4946870;29;20023;-84
2024/01/29 13:10:30;;;;;;;4.55;2.00;;;;;;;;;;4927444;29;20038;-82
2024/01/29 13:12:56;;;;;;;8.82;1.90;;;;;;;;;;4934852;29;20028;-82
2024/01/29 13:15:22;;;;;;;5.45;2.20;;;;;;;;;;4907645;29;20088;-83
2024/01/29 13:17:47;;;;;;;9.90;2.75;;;;;;;;;;4940362;29;20048;-83
2024/01/29 13:20:13;;;;;;;5.10;1.98;;;;;;;;;;4924220;29;20039;-83
2024/01/29 13:22:39;;;;;;;4.43;1.92;;;;;;;;;;4919198;29;20039;-81
2024/01/29 13:25:09;;;;;;;4.72;2.03;;;;;;;;;;4906990;29;20055;-81
2024/01/29 13:27:35;;;;;;;3.80;1.80;;;;;;;;;;4918134;29;20028;-83
2024/01/29 13:30:01;;;;;;;11.95;2.70;;;;;;;;;;4910641;29;20042;-83
2024/01/29 13:32:27;;;;;;;3.25;1.40;;;;;;;;;;4923694;29;20036;-83
2024/01/29 13:34:53;;;;;;;7.40;2.83;;;;;;;;;;4913125;29;20036;-83
2024/01/29 13:37:18;;;;;;;5.70;2.38;;;;;;;;;;4932977;29;20029;-84
2024/01/29 13:39:44;;;;;;;9.23;2.33;;;;;;;;;;4951719;29;20032;-83
2024/01/29 13:42:10;;;;;;;12.35;3.80;;;;;;;;;;4940922;29;20486;-83
2024/01/29 13:44:35;;;;;;;10.50;3.25;;;;;;;;;;4923777;29;20566;-83
2024/01/29 13:47:03;;;;;;;7.90;3.00;;;;;;;;;;4924376;29;20043;-83
2024/01/29 13:49:28;;;;;;;13.90;4.13;;;;;;;;;;4949070;29;20035;-83
2024/01/29 13:51:54;;;;;;;9.65;3.60;;;;;;;;;;4937120;29;20104;-84
2024/01/29 13:54:20;;;;;;;10.95;3.30;;;;;;;;;;4919629;29;21377;-83
2024/01/29 13:56:45;;;;;;;11.65;3.78;;;;;;;;;;4914333;29;20121;-83
2024/01/29 13:59:11;;;;;;;9.82;4.05;;;;;;;;;;4930707;29;20115;-83
2024/01/29 14:01:38;;;;;;;7.68;3.17;;;;;;;;;;4915532;29;20042;-83
2024/01/29 14:04:03;;;;;;;7.60;2.05;;;;;;;;;;4955575;29;20035;-83
2024/01/29 14:06:29;;;;;;;12.98;2.92;;;;;;;;;;4921807;29;20047;-82
2024/01/29 14:08:55;;;;;;;5.60;2.53;;;;;;;;;;4926029;29;20040;-83
2024/01/29 14:11:21;;;;;;;8.88;2.88;;;;;;;;;;4953148;29;20030;-83
2024/01/29 14:13:46;;;;;;;7.82;2.78;;;;;;;;;;4936734;29;20096;-83
2024/01/29 14:16:12;;;;;;;8.98;3.08;;;;;;;;;;4947941;29;20051;-83
2024/01/29 14:18:39;;;;;;;6.47;2.55;;;;;;;;;;4924916;29;20035;-83
2024/01/29 14:21:04;;;;;;;14.32;2.67;;;;;;;;;;4924491;29;20040;-81
2024/01/29 14:23:30;;;;;;;7.38;2.20;;;;;;;;;;4956399;29;20126;-83
2024/01/29 14:25:56;;;;;;;10.80;2.55;;;;;;;;;;4912437;29;20037;-83
2024/01/29 14:28:22;;;;;;;6.35;2.70;;;;;;;;;;4925900;29;20059;-84
2024/01/29 14:30:47;;;;;;;7.00;2.67;;;;;;;;;;4941616;29;20079;-84
2024/01/29 14:33:13;;;;;;;8.82;3.00;;;;;;;;;;4926968;29;20099;-84
2024/01/29 14:35:41;;;;;;;8.55;3.75;;;;;;;;;;4927515;29;20062;-82
2024/01/29 14:38:07;;;;;;;7.95;2.80;;;;;;;;;;4929051;29;20044;-82
2024/01/29 14:40:34;;;;;;;6.07;2.63;;;;;;;;;;4937347;29;20035;-82
2024/01/29 14:43:00;;;;;;;3.88;2.20;;;;;;;;;;4927600;29;20095;-82
2024/01/29 14:45:26;;;;;;;5.68;3.00;;;;;;;;;;4912621;29;20040;-82
2024/01/29 14:47:52;;;;;;;6.35;2.90;;;;;;;;;;4942103;28;20047;-82
2024/01/29 14:50:18;;;;;;;6.70;2.50;;;;;;;;;;4928843;29;20119;-82
2024/01/29 14:52:43;;;;;;;5.30;1.92;;;;;;;;;;4923041;29;20027;-82
2024/01/29 14:55:09;;;;;;;8.02;2.10;;;;;;;;;;4923411;29;20050;-82
2024/01/29 14:57:35;;;;;;;6.50;1.58;;;;;;;;;;4940919;29;20074;-82
2024/01/29 15:00:02;;;;;;;6.85;2.30;;;;;;;;;;4914540;29;20040;-82
2024/01/29 15:02:29;;;;;;;8.40;2.10;;;;;;;;;;4946586;29;20020;-82
2024/01/29 15:04:55;;;;;;;4.80;2.33;;;;;;;;;;4949951;29;20268;-82
2024/01/29 15:07:21;;;;;;;5.55;2.10;;;;;;;;;;4928546;29;20415;-82
2024/01/29 15:09:48;;;;;;;8.40;2.50;;;;;;;;;;4916557;29;20098;-82
2024/01/29 15:12:13;;;;;;;10.07;2.25;;;;;;;;;;4930209;29;20031;-82
2024/01/29 15:14:39;;;;;;;4.38;1.85;;;;;;;;;;4911422;29;20459;-82
2024/01/29 15:17:06;;;;;;;5.78;2.10;;;;;;;;;;4924927;29;20090;-82
2024/01/29 15:19:32;;;;;;;6.80;2.08;;;;;;;;;;4942018;29;20039;-82